sensor_id;sensor_type;location;lat;lon;timestamp;pressure;altitude;pressure_sealevel;temperature;humidity
63339;BME280;70568;51.378;-1.342;2023-09-19T00:02:24;99387.86;;;7.89;41.59
63339;BME280;70568;51.378;-1.342;2023-09-19T00:04:50;99386.99;;;9.19;42.50
63339;BME280;70568;51.378;-1.342;2023-09-19T00:07:17;99391.68;;;7.28;44.51
63339;BME280;70568;51.378;-1.342;2023-09-19T00:09:43;99384.84;;;8.43;43.69
63339;BME280;70568;51.378;-1.342;2023-09-19T00:12:10;99392.67;;;8.46;43.83
63339;BME280;70568;51.378;-1.342;2023-09-19T00:14:37;99391.28;;;7.79;44.69
63339;BME280;70568;51.378;-1.342;2023-09-19T00:17:04;99399.68;;;8.92;42.91
63339;BME280;70568;51.378;-1.342;2023-09-19T00:19:32;99401.67;;;7.85;43.27
63339;BME280;70568;51.378;-1.342;2023-09-19T00:22:00;99405.15;;;6.93;44.58
63339;BME280;70568;51.378;-1.342;2023-09-19T00:24:26;99402.21;;;7.98;44.56
63339;BME280;70568;51.378;-1.342;2023-09-19T00:26:53;99399.75;;;9.78;41.72
63339;BME280;70568;51.378;-1.342;2023-09-19T00:29:25;99403.96;;;8.77;43.25
63339;BME280;70568;51.378;-1.342;2023-09-19T00:31:52;99406.29;;;8.09;43.64
63339;BME280;70568;51.378;-1.342;2023-09-19T00:34:19;99397.70;;;8.12;43.06
63339;BME280;70568;51.378;-1.342;2023-09-19T00:36:45;99401.01;;;9.45;40.77
63339;BME280;70568;51.378;-1.342;2023-09-19T00:39:13;99402.32;;;9.63;41.15
63339;BME280;70568;51.378;-1.342;2023-09-19T00:41:39;99394.21;;;9.87;40.07
63339;BME280;70568;51.378;-1.342;2023-09-19T00:44:06;99394.98;;;8.59;40.30
63339;BME280;70568;51.378;-1.342;2023-09-19T00:46:33;99411.04;;;8.53;42.79
63339;BME280;70568;51.378;-1.342;2023-09-19T00:48:59;99410.08;;;7.62;42.70
63339;BME280;70568;51.378;-1.342;2023-09-19T00:51:26;99403.16;;;8.34;41.48
63339;BME280;70568;51.378;-1.342;2023-09-19T00:53:54;99402.46;;;9.85;40.71
63339;BME280;70568;51.378;-1.342;2023-09-19T00:56:21;99404.71;;;8.86;43.54
63339;BME280;70568;51.378;-1.342;2023-09-19T00:58:48;99402.83;;;8.84;43.62
63339;BME280;70568;51.378;-1.342;2023-09-19T01:01:15;99398.46;;;7.85;44.97
63339;BME280;70568;51.378;-1.342;2023-09-19T01:03:44;99393.44;;;9.08;42.34
63339;BME280;70568;51.378;-1.342;2023-09-19T01:06:11;99393.80;;;7.31;42.36
63339;BME280;70568;51.378;-1.342;2023-09-19T01:08:38;99395.71;;;8.88;42.58
63339;BME280;70568;51.378;-1.342;2023-09-19T01:11:13;99400.69;;;8.17;43.55
63339;BME280;70568;51.378;-1.342;2023-09-19T01:13:49;99388.31;;;8.50;41.62
63339;BME280;70568;51.378;-1.342;2023-09-19T01:16:30;99390.59;;;9.80;41.48
63339;BME280;70568;51.378;-1.342;2023-09-19T01:19:05;99378.49;;;8.56;42.36
63339;BME280;70568;51.378;-1.342;2023-09-19T01:21:42;99383.90;;;8.36;43.13
63339;BME280;70568;51.378;-1.342;2023-09-19T01:27:06;99379.55;;;9.21;41.79
63339;BME280;70568;51.378;-1.342;2023-09-19T01:29:43;99383.07;;;8.91;40.92
63339;BME280;70568;51.378;-1.342;2023-09-19T01:32:13;99380.33;;;8.71;40.37
63339;BME280;70568;51.378;-1.342;2023-09-19T01:34:45;99379.37;;;9.82;40.85
63339;BME280;70568;51.378;-1.342;2023-09-19T01:37:13;99379.42;;;8.98;41.69
63339;BME280;70568;51.378;-1.342;2023-09-19T01:39:40;99378.53;;;6.48;43.62
63339;BME280;70568;51.378;-1.342;2023-09-19T01:42:16;99374.54;;;9.82;41.69
63339;BME280;70568;51.378;-1.342;2023-09-19T01:44:53;99386.46;;;8.13;45.29
63339;BME280;70568;51.378;-1.342;2023-09-19T01:47:27;99386.36;;;7.59;46.30
63339;BME280;70568;51.378;-1.342;2023-09-19T01:50:01;99388.84;;;8.82;43.71
63339;BME280;70568;51.378;-1.342;2023-09-19T01:52:31;99383.44;;;8.00;42.07
63339;BME280;70568;51.378;-1.342;2023-09-19T01:55:07;99385.80;;;9.10;41.12
63339;BME280;70568;51.378;-1.342;2023-09-19T01:57:40;99395.75;;;8.75;42.46
63339;BME280;70568;51.378;-1.342;2023-09-19T02:00:12;99393.53;;;9.71;43.06
63339;BME280;70568;51.378;-1.342;2023-09-19T02:02:42;99393.25;;;8.34;43.83
63339;BME280;70568;51.378;-1.342;2023-09-19T02:05:10;99386.46;;;8.19;42.94
63339;BME280;70568;51.378;-1.342;2023-09-19T02:07:38;99393.66;;;9.06;43.52
63339;BME280;70568;51.378;-1.342;2023-09-19T02:10:06;99390.08;;;7.58;43.00
63339;BME280;70568;51.378;-1.342;2023-09-19T02:12:33;99385.13;;;7.83;41.02
63339;BME280;70568;51.378;-1.342;2023-09-19T02:15:00;99386.43;;;9.41;40.77
63339;BME280;70568;51.378;-1.342;2023-09-19T02:17:26;99393.66;;;9.10;40.39
63339;BME280;70568;51.378;-1.342;2023-09-19T02:19:53;99389.44;;;8.78;40.76
63339;BME280;70568;51.378;-1.342;2023-09-19T02:22:20;99387.24;;;7.80;42.45
63339;BME280;70568;51.378;-1.342;2023-09-19T02:24:47;99392.86;;;9.53;41.93
63339;BME280;70568;51.378;-1.342;2023-09-19T02:27:15;99397.24;;;8.16;42.27
63339;BME280;70568;51.378;-1.342;2023-09-19T02:29:42;99392.01;;;8.04;42.44
63339;BME280;70568;51.378;-1.342;2023-09-19T02:32:09;99388.16;;;9.44;42.09
63339;BME280;70568;51.378;-1.342;2023-09-19T02:34:37;99387.70;;;8.93;39.13
63339;BME280;70568;51.378;-1.342;2023-09-19T02:37:04;99385.31;;;7.88;40.32
63339;BME280;70568;51.378;-1.342;2023-09-19T02:39:32;99385.41;;;9.39;38.95
63339;BME280;70568;51.378;-1.342;2023-09-19T02:42:00;99381.74;;;8.05;40.46
63339;BME280;70568;51.378;-1.342;2023-09-19T02:44:27;99385.21;;;9.74;39.47
63339;BME280;70568;51.378;-1.342;2023-09-19T02:46:53;99389.23;;;8.92;38.85
63339;BME280;70568;51.378;-1.342;2023-09-19T02:49:20;99380.61;;;9.77;37.33
63339;BME280;70568;51.378;-1.342;2023-09-19T02:51:46;99380.76;;;9.52;38.15
63339;BME280;70568;51.378;-1.342;2023-09-19T02:54:14;99373.77;;;11.35;37.11
63339;BME280;70568;51.378;-1.342;2023-09-19T02:56:41;99379.75;;;9.92;39.08
63339;BME280;70568;51.378;-1.342;2023-09-19T02:59:08;99377.71;;;11.03;39.31
63339;BME280;70568;51.378;-1.342;2023-09-19T03:01:35;99379.27;;;7.56;40.74
63339;BME280;70568;51.378;-1.342;2023-09-19T03:04:02;99374.22;;;8.75;38.08
63339;BME280;70568;51.378;-1.342;2023-09-19T03:06:29;99370.37;;;10.82;36.80
63339;BME280;70568;51.378;-1.342;2023-09-19T03:08:56;99366.63;;;10.20;38.01
63339;BME280;70568;51.378;-1.342;2023-09-19T03:11:22;99366.93;;;10.60;37.13
63339;BME280;70568;51.378;-1.342;2023-09-19T03:13:52;99366.39;;;12.20;36.46
63339;BME280;70568;51.378;-1.342;2023-09-19T03:16:18;99359.41;;;10.08;37.19
63339;BME280;70568;51.378;-1.342;2023-09-19T03:18:45;99353.84;;;8.80;35.84
63339;BME280;70568;51.378;-1.342;2023-09-19T03:21:13;99348.89;;;10.21;35.84
63339;BME280;70568;51.378;-1.342;2023-09-19T03:23:40;99340.68;;;8.01;37.50
63339;BME280;70568;51.378;-1.342;2023-09-19T03:26:06;99326.22;;;10.16;34.98
63339;BME280;70568;51.378;-1.342;2023-09-19T03:28:33;99320.02;;;10.55;33.84
63339;BME280;70568;51.378;-1.342;2023-09-19T03:31:00;99321.71;;;9.80;34.72
63339;BME280;70568;51.378;-1.342;2023-09-19T03:33:27;99316.83;;;11.91;32.86
63339;BME280;70568;51.378;-1.342;2023-09-19T03:35:54;99316.86;;;10.83;32.99
63339;BME280;70568;51.378;-1.342;2023-09-19T03:38:21;99308.73;;;10.89;33.14
63339;BME280;70568;51.378;-1.342;2023-09-19T03:40:47;99303.95;;;9.42;34.06
63339;BME280;70568;51.378;-1.342;2023-09-19T03:43:15;99304.34;;;9.16;36.18
63339;BME280;70568;51.378;-1.342;2023-09-19T03:45:42;99297.69;;;8.13;36.51
63339;BME280;70568;51.378;-1.342;2023-09-19T03:48:09;99283.72;;;11.85;34.64
63339;BME280;70568;51.378;-1.342;2023-09-19T03:50:36;99289.77;;;8.33;37.54
63339;BME280;70568;51.378;-1.342;2023-09-19T03:53:03;99277.95;;;11.00;36.72
63339;BME280;70568;51.378;-1.342;2023-09-19T03:55:30;99271.95;;;9.93;37.83
63339;BME280;70568;51.378;-1.342;2023-09-19T03:57:57;99275.40;;;9.94;38.03
63339;BME280;70568;51.378;-1.342;2023-09-19T04:00:23;99275.38;;;9.45;38.30
63339;BME280;70568;51.378;-1.342;2023-09-19T04:02:52;99258.94;;;9.11;40.09
63339;BME280;70568;51.378;-1.342;2023-09-19T04:05:19;99249.53;;;7.41;41.86
63339;BME280;70568;51.378;-1.342;2023-09-19T04:07:45;99249.33;;;10.10;39.20
63339;BME280;70568;51.378;-1.342;2023-09-19T04:10:13;99251.83;;;8.35;41.08
63339;BME280;70568;51.378;-1.342;2023-09-19T04:12:39;99244.69;;;9.02;40.11
63339;BME280;70568;51.378;-1.342;2023-09-19T04:15:08;99251.31;;;9.26;40.26
63339;BME280;70568;51.378;-1.342;2023-09-19T04:17:35;99247.98;;;6.41;42.53
63339;BME280;70568;51.378;-1.342;2023-09-19T04:20:02;99238.40;;;7.50;42.46
63339;BME280;70568;51.378;-1.342;2023-09-19T04:22:29;99236.91;;;8.98;41.43
63339;BME280;70568;51.378;-1.342;2023-09-19T04:24:55;99237.82;;;7.06;41.35
63339;BME280;70568;51.378;-1.342;2023-09-19T04:27:22;99242.52;;;10.38;39.29
63339;BME280;70568;51.378;-1.342;2023-09-19T04:29:48;99247.15;;;8.92;40.04
63339;BME280;70568;51.378;-1.342;2023-09-19T04:32:15;99245.73;;;8.29;40.20
63339;BME280;70568;51.378;-1.342;2023-09-19T04:34:42;99251.87;;;8.82;40.89
63339;BME280;70568;51.378;-1.342;2023-09-19T04:37:08;99249.53;;;8.59;40.31
63339;BME280;70568;51.378;-1.342;2023-09-19T04:39:35;99253.36;;;9.12;39.12
63339;BME280;70568;51.378;-1.342;2023-09-19T04:42:02;99253.93;;;8.09;39.08
63339;BME280;70568;51.378;-1.342;2023-09-19T04:44:29;99258.84;;;9.67;38.74
63339;BME280;70568;51.378;-1.342;2023-09-19T04:46:56;99257.48;;;9.25;41.47
63339;BME280;70568;51.378;-1.342;2023-09-19T04:49:22;99253.63;;;8.97;41.43
63339;BME280;70568;51.378;-1.342;2023-09-19T04:51:49;99251.86;;;9.52;39.23
63339;BME280;70568;51.378;-1.342;2023-09-19T04:54:15;99255.88;;;9.22;41.11
63339;BME280;70568;51.378;-1.342;2023-09-19T04:56:42;99249.40;;;8.49;41.73
63339;BME280;70568;51.378;-1.342;2023-09-19T04:59:09;99247.77;;;9.86;40.22
63339;BME280;70568;51.378;-1.342;2023-09-19T05:01:36;99247.58;;;9.31;39.79
63339;BME280;70568;51.378;-1.342;2023-09-19T05:04:02;99238.64;;;8.69;41.02
63339;BME280;70568;51.378;-1.342;2023-09-19T05:06:29;99234.16;;;9.08;41.98
63339;BME280;70568;51.378;-1.342;2023-09-19T05:08:56;99232.88;;;9.22;40.79
63339;BME280;70568;51.378;-1.342;2023-09-19T05:11:24;99235.67;;;10.18;40.38
63339;BME280;70568;51.378;-1.342;2023-09-19T05:13:52;99232.13;;;8.20;41.26
63339;BME280;70568;51.378;-1.342;2023-09-19T05:16:19;99239.37;;;9.67;39.96
63339;BME280;70568;51.378;-1.342;2023-09-19T05:18:47;99230.88;;;9.10;40.57
63339;BME280;70568;51.378;-1.342;2023-09-19T05:21:15;99226.74;;;10.95;39.88
63339;BME280;70568;51.378;-1.342;2023-09-19T05:23:41;99230.03;;;8.28;42.73
63339;BME280;70568;51.378;-1.342;2023-09-19T05:26:08;99231.05;;;7.65;45.76
63339;BME280;70568;51.378;-1.342;2023-09-19T05:28:35;99226.53;;;9.80;43.52
63339;BME280;70568;51.378;-1.342;2023-09-19T05:31:01;99219.36;;;8.92;45.11
63339;BME280;70568;51.378;-1.342;2023-09-19T05:33:29;99218.46;;;8.20;44.45
63339;BME280;70568;51.378;-1.342;2023-09-19T05:35:55;99217.72;;;8.95;44.11
63339;BME280;70568;51.378;-1.342;2023-09-19T05:38:21;99211.91;;;9.85;42.88
63339;BME280;70568;51.378;-1.342;2023-09-19T05:40:48;99207.46;;;10.25;41.82
63339;BME280;70568;51.378;-1.342;2023-09-19T05:43:15;99205.36;;;10.18;42.49
63339;BME280;70568;51.378;-1.342;2023-09-19T05:45:42;99198.91;;;8.08;43.93
63339;BME280;70568;51.378;-1.342;2023-09-19T05:48:10;99206.86;;;9.53;43.58
63339;BME280;70568;51.378;-1.342;2023-09-19T05:50:37;99202.86;;;5.99;46.64
63339;BME280;70568;51.378;-1.342;2023-09-19T05:53:04;99197.61;;;8.52;46.00
63339;BME280;70568;51.378;-1.342;2023-09-19T05:55:31;99195.89;;;7.46;45.39
63339;BME280;70568;51.378;-1.342;2023-09-19T05:57:58;99192.53;;;9.96;44.05
63339;BME280;70568;51.378;-1.342;2023-09-19T06:00:26;99187.52;;;9.72;43.84
63339;BME280;70568;51.378;-1.342;2023-09-19T06:02:53;99191.92;;;10.32;43.22
63339;BME280;70568;51.378;-1.342;2023-09-19T06:05:21;99192.46;;;9.46;43.68
63339;BME280;70568;51.378;-1.342;2023-09-19T06:07:48;99197.02;;;9.92;45.49
63339;BME280;70568;51.378;-1.342;2023-09-19T06:10:16;99194.14;;;8.29;46.39
63339;BME280;70568;51.378;-1.342;2023-09-19T06:12:43;99190.36;;;7.76;47.95
63339;BME280;70568;51.378;-1.342;2023-09-19T06:15:11;99191.79;;;8.37;48.74
63339;BME280;70568;51.378;-1.342;2023-09-19T06:17:38;99177.20;;;8.44;47.27
63339;BME280;70568;51.378;-1.342;2023-09-19T06:20:06;99173.55;;;8.37;48.01
63339;BME280;70568;51.378;-1.342;2023-09-19T06:22:33;99174.83;;;7.64;48.50
63339;BME280;70568;51.378;-1.342;2023-09-19T06:24:59;99171.48;;;9.21;46.31
63339;BME280;70568;51.378;-1.342;2023-09-19T06:27:26;99166.08;;;10.00;46.70
63339;BME280;70568;51.378;-1.342;2023-09-19T06:29:52;99168.19;;;9.52;46.62
63339;BME280;70568;51.378;-1.342;2023-09-19T06:32:18;99164.00;;;10.55;44.23
63339;BME280;70568;51.378;-1.342;2023-09-19T06:34:45;99164.43;;;10.51;43.66
63339;BME280;70568;51.378;-1.342;2023-09-19T06:37:13;99162.68;;;7.91;46.84
63339;BME280;70568;51.378;-1.342;2023-09-19T06:39:40;99164.77;;;7.56;48.53
63339;BME280;70568;51.378;-1.342;2023-09-19T06:42:06;99161.19;;;9.51;48.19
63339;BME280;70568;51.378;-1.342;2023-09-19T06:44:32;99158.97;;;8.95;47.78
63339;BME280;70568;51.378;-1.342;2023-09-19T06:46:59;99151.65;;;10.49;45.89
63339;BME280;70568;51.378;-1.342;2023-09-19T06:49:25;99150.98;;;9.62;47.52
63339;BME280;70568;51.378;-1.342;2023-09-19T06:51:54;99152.82;;;9.33;47.35
63339;BME280;70568;51.378;-1.342;2023-09-19T06:54:21;99155.83;;;9.03;47.21
63339;BME280;70568;51.378;-1.342;2023-09-19T06:56:47;99155.16;;;8.81;46.41
63339;BME280;70568;51.378;-1.342;2023-09-19T06:59:19;99156.84;;;8.18;50.01
63339;BME280;70568;51.378;-1.342;2023-09-19T07:01:45;99152.72;;;8.03;49.59
63339;BME280;70568;51.378;-1.342;2023-09-19T07:04:13;99153.32;;;6.76;49.17
63339;BME280;70568;51.378;-1.342;2023-09-19T07:06:40;99151.46;;;7.94;48.52
63339;BME280;70568;51.378;-1.342;2023-09-19T07:09:06;99134.57;;;10.36;46.75
63339;BME280;70568;51.378;-1.342;2023-09-19T07:11:33;99139.30;;;9.27;46.69
63339;BME280;70568;51.378;-1.342;2023-09-19T07:13:59;99140.55;;;9.81;48.07
63339;BME280;70568;51.378;-1.342;2023-09-19T07:16:28;99130.56;;;9.08;49.35
63339;BME280;70568;51.378;-1.342;2023-09-19T07:18:55;99140.41;;;11.48;46.05
63339;BME280;70568;51.378;-1.342;2023-09-19T07:21:22;99133.77;;;9.38;47.44
63339;BME280;70568;51.378;-1.342;2023-09-19T07:23:49;99137.84;;;10.40;47.38
63339;BME280;70568;51.378;-1.342;2023-09-19T07:26:18;99146.61;;;6.72;50.02
63339;BME280;70568;51.378;-1.342;2023-09-19T07:28:44;99139.74;;;8.23;48.22
63339;BME280;70568;51.378;-1.342;2023-09-19T07:31:11;99132.12;;;9.94;48.65
63339;BME280;70568;51.378;-1.342;2023-09-19T07:33:37;99134.34;;;9.15;49.63
63339;BME280;70568;51.378;-1.342;2023-09-19T07:36:04;99132.40;;;8.91;49.47
63339;BME280;70568;51.378;-1.342;2023-09-19T07:38:31;99131.22;;;9.06;48.55
63339;BME280;70568;51.378;-1.342;2023-09-19T07:41:00;99134.69;;;8.70;50.27
63339;BME280;70568;51.378;-1.342;2023-09-19T07:43:27;99136.96;;;8.05;49.92
63339;BME280;70568;51.378;-1.342;2023-09-19T07:45:54;99133.51;;;9.71;46.06
63339;BME280;70568;51.378;-1.342;2023-09-19T07:48:20;99139.99;;;9.86;47.23
63339;BME280;70568;51.378;-1.342;2023-09-19T07:50:47;99139.70;;;9.92;50.30
63339;BME280;70568;51.378;-1.342;2023-09-19T07:53:14;99136.00;;;9.35;49.28
63339;BME280;70568;51.378;-1.342;2023-09-19T07:55:41;99144.65;;;10.71;46.83
63339;BME280;70568;51.378;-1.342;2023-09-19T07:58:08;99137.95;;;9.70;47.19
63339;BME280;70568;51.378;-1.342;2023-09-19T08:00:35;99125.04;;;11.62;45.88
63339;BME280;70568;51.378;-1.342;2023-09-19T08:03:01;99124.54;;;8.44;49.16
63339;BME280;70568;51.378;-1.342;2023-09-19T08:05:29;99118.98;;;10.12;48.32
63339;BME280;70568;51.378;-1.342;2023-09-19T08:07:55;99108.91;;;10.04;49.75
63339;BME280;70568;51.378;-1.342;2023-09-19T08:10:22;99113.32;;;9.62;49.99
63339;BME280;70568;51.378;-1.342;2023-09-19T08:12:49;99116.72;;;9.10;48.23
63339;BME280;70568;51.378;-1.342;2023-09-19T08:15:18;99132.20;;;11.25;48.01
63339;BME280;70568;51.378;-1.342;2023-09-19T08:17:45;99131.16;;;9.77;48.28
63339;BME280;70568;51.378;-1.342;2023-09-19T08:20:12;99129.03;;;10.25;47.01
63339;BME280;70568;51.378;-1.342;2023-09-19T08:22:40;99132.34;;;10.17;46.07
63339;BME280;70568;51.378;-1.342;2023-09-19T08:25:06;99137.00;;;9.62;46.88
63339;BME280;70568;51.378;-1.342;2023-09-19T08:27:33;99133.26;;;10.19;47.20
63339;BME280;70568;51.378;-1.342;2023-09-19T08:30:00;99132.00;;;10.45;47.39
63339;BME280;70568;51.378;-1.342;2023-09-19T08:32:28;99124.16;;;10.52;44.61
63339;BME280;70568;51.378;-1.342;2023-09-19T08:34:55;99122.91;;;10.10;45.91
63339;BME280;70568;51.378;-1.342;2023-09-19T08:37:21;99135.78;;;10.17;46.14
63339;BME280;70568;51.378;-1.342;2023-09-19T08:39:48;99129.42;;;10.16;46.86
63339;BME280;70568;51.378;-1.342;2023-09-19T08:42:15;99128.58;;;10.10;46.68
63339;BME280;70568;51.378;-1.342;2023-09-19T08:44:42;99124.35;;;11.15;47.03
63339;BME280;70568;51.378;-1.342;2023-09-19T08:47:10;99122.24;;;10.17;47.80
63339;BME280;70568;51.378;-1.342;2023-09-19T08:49:42;99110.44;;;9.66;48.11
63339;BME280;70568;51.378;-1.342;2023-09-19T08:52:20;99113.32;;;10.82;46.27
63339;BME280;70568;51.378;-1.342;2023-09-19T08:54:48;99131.95;;;10.26;47.05
63339;BME280;70568;51.378;-1.342;2023-09-19T08:57:19;99133.13;;;10.15;47.41
63339;BME280;70568;51.378;-1.342;2023-09-19T08:59:47;99125.51;;;9.52;48.31
63339;BME280;70568;51.378;-1.342;2023-09-19T09:02:15;99133.71;;;8.99;47.92
63339;BME280;70568;51.378;-1.342;2023-09-19T09:04:43;99124.18;;;10.26;49.34
63339;BME280;70568;51.378;-1.342;2023-09-19T09:07:11;99124.95;;;8.97;50.32
63339;BME280;70568;51.378;-1.342;2023-09-19T09:09:38;99125.02;;;10.00;50.30
63339;BME280;70568;51.378;-1.342;2023-09-19T09:12:05;99131.58;;;10.60;50.49
63339;BME280;70568;51.378;-1.342;2023-09-19T09:14:32;99136.38;;;9.39;49.23
63339;BME280;70568;51.378;-1.342;2023-09-19T09:16:59;99132.97;;;9.73;48.86
63339;BME280;70568;51.378;-1.342;2023-09-19T09:19:26;99131.75;;;10.82;48.12
63339;BME280;70568;51.378;-1.342;2023-09-19T09:21:53;99136.44;;;10.68;48.13
63339;BME280;70568;51.378;-1.342;2023-09-19T09:24:26;99135.87;;;8.27;49.64
63339;BME280;70568;51.378;-1.342;2023-09-19T09:26:53;99132.11;;;8.16;50.41
63339;BME280;70568;51.378;-1.342;2023-09-19T09:31:29;99139.76;;;10.24;48.51
63339;BME280;70568;51.378;-1.342;2023-09-19T09:34:01;99137.67;;;7.03;50.10
63339;BME280;70568;51.378;-1.342;2023-09-19T09:36:36;99132.14;;;9.92;49.09
63339;BME280;70568;51.378;-1.342;2023-09-19T09:39:03;99134.36;;;10.78;46.10
63339;BME280;70568;51.378;-1.342;2023-09-19T09:41:36;99126.38;;;10.94;47.48
63339;BME280;70568;51.378;-1.342;2023-09-19T09:44:13;99124.67;;;7.80;49.07
63339;BME280;70568;51.378;-1.342;2023-09-19T09:46:42;99136.49;;;8.09;48.24
63339;BME280;70568;51.378;-1.342;2023-09-19T09:49:10;99128.79;;;10.80;45.93
63339;BME280;70568;51.378;-1.342;2023-09-19T09:51:37;99132.79;;;9.37;45.85
63339;BME280;70568;51.378;-1.342;2023-09-19T09:54:10;99129.20;;;11.56;47.54
63339;BME280;70568;51.378;-1.342;2023-09-19T09:56:52;99130.76;;;10.09;48.49
63339;BME280;70568;51.378;-1.342;2023-09-19T09:59:18;99130.45;;;10.38;48.83
63339;BME280;70568;51.378;-1.342;2023-09-19T10:01:46;99136.77;;;9.69;49.16
63339;BME280;70568;51.378;-1.342;2023-09-19T10:04:27;99134.82;;;7.76;51.08
63339;BME280;70568;51.378;-1.342;2023-09-19T10:06:54;99132.02;;;8.98;48.15
63339;BME280;70568;51.378;-1.342;2023-09-19T10:09:22;99136.96;;;10.94;46.51
63339;BME280;70568;51.378;-1.342;2023-09-19T10:12:03;99135.12;;;11.34;46.63
63339;BME280;70568;51.378;-1.342;2023-09-19T10:14:30;99138.86;;;10.30;49.23
63339;BME280;70568;51.378;-1.342;2023-09-19T10:17:02;99145.16;;;9.71;48.72
63339;BME280;70568;51.378;-1.342;2023-09-19T10:19:36;99136.74;;;10.50;47.23
63339;BME280;70568;51.378;-1.342;2023-09-19T10:22:04;99136.08;;;9.37;49.50
63339;BME280;70568;51.378;-1.342;2023-09-19T10:24:34;99155.24;;;10.33;49.80
63339;BME280;70568;51.378;-1.342;2023-09-19T10:27:02;99137.64;;;11.39;50.94
63339;BME280;70568;51.378;-1.342;2023-09-19T10:29:32;99131.01;;;9.11;49.30
63339;BME280;70568;51.378;-1.342;2023-09-19T10:32:00;99136.65;;;11.16;47.12
63339;BME280;70568;51.378;-1.342;2023-09-19T10:34:29;99134.89;;;10.03;48.57
63339;BME280;70568;51.378;-1.342;2023-09-19T10:36:57;99123.55;;;11.45;47.93
63339;BME280;70568;51.378;-1.342;2023-09-19T10:39:24;99125.66;;;9.98;46.17
63339;BME280;70568;51.378;-1.342;2023-09-19T10:41:53;99132.20;;;10.00;47.93
63339;BME280;70568;51.378;-1.342;2023-09-19T10:44:23;99129.34;;;10.48;47.84
63339;BME280;70568;51.378;-1.342;2023-09-19T10:46:51;99135.81;;;11.58;48.04
63339;BME280;70568;51.378;-1.342;2023-09-19T10:49:18;99124.26;;;10.49;49.00
63339;BME280;70568;51.378;-1.342;2023-09-19T10:51:47;99130.20;;;11.34;48.65
63339;BME280;70568;51.378;-1.342;2023-09-19T10:54:18;99125.18;;;11.54;49.18
63339;BME280;70568;51.378;-1.342;2023-09-19T10:56:48;99125.49;;;9.00;49.91
63339;BME280;70568;51.378;-1.342;2023-09-19T10:59:17;99125.03;;;10.18;48.21
63339;BME280;70568;51.378;-1.342;2023-09-19T11:01:46;99125.92;;;9.26;49.88
63339;BME280;70568;51.378;-1.342;2023-09-19T11:04:30;99127.70;;;10.97;49.05
63339;BME280;70568;51.378;-1.342;2023-09-19T11:07:01;99122.51;;;11.46;47.28
63339;BME280;70568;51.378;-1.342;2023-09-19T11:09:43;99127.02;;;10.67;45.82
63339;BME280;70568;51.378;-1.342;2023-09-19T11:12:10;99122.93;;;10.78;48.10
63339;BME280;70568;51.378;-1.342;2023-09-19T11:14:40;99130.37;;;9.98;49.11
63339;BME280;70568;51.378;-1.342;2023-09-19T11:17:32;99128.27;;;12.29;47.92
63339;BME280;70568;51.378;-1.342;2023-09-19T11:20:19;99131.94;;;10.41;49.85
63339;BME280;70568;51.378;-1.342;2023-09-19T11:23:19;99128.28;;;10.33;49.49
63339;BME280;70568;51.378;-1.342;2023-09-19T11:25:45;99114.41;;;11.34;48.94
63339;BME280;70568;51.378;-1.342;2023-09-19T11:28:32;99115.10;;;11.24;47.70
63339;BME280;70568;51.378;-1.342;2023-09-19T11:30:59;99110.99;;;9.65;51.39
63339;BME280;70568;51.378;-1.342;2023-09-19T11:35:12;99105.38;;;10.95;50.94
63339;BME280;70568;51.378;-1.342;2023-09-19T11:37:59;99107.73;;;10.26;50.26
63339;BME280;70568;51.378;-1.342;2023-09-19T11:40:26;99099.34;;;10.86;48.95
63339;BME280;70568;51.378;-1.342;2023-09-19T11:42:52;99099.24;;;11.02;48.53
63339;BME280;70568;51.378;-1.342;2023-09-19T11:46:24;99102.56;;;12.11;47.08
63339;BME280;70568;51.378;-1.342;2023-09-19T11:48:51;99104.57;;;10.20;50.28
63339;BME280;70568;51.378;-1.342;2023-09-19T11:51:20;99094.63;;;11.86;48.61
63339;BME280;70568;51.378;-1.342;2023-09-19T11:53:47;99092.20;;;9.59;49.48
63339;BME280;70568;51.378;-1.342;2023-09-19T11:56:16;99091.34;;;10.54;49.88
63339;BME280;70568;51.378;-1.342;2023-09-19T11:58:45;99089.01;;;11.32;50.55
63339;BME280;70568;51.378;-1.342;2023-09-19T12:01:14;99096.36;;;11.88;49.20
63339;BME280;70568;51.378;-1.342;2023-09-19T12:03:43;99092.88;;;10.95;52.35
63339;BME280;70568;51.378;-1.342;2023-09-19T12:06:12;99091.26;;;10.52;53.52
63339;BME280;70568;51.378;-1.342;2023-09-19T12:08:40;99089.12;;;10.08;51.97
63339;BME280;70568;51.378;-1.342;2023-09-19T12:11:14;99084.03;;;10.94;50.26
63339;BME280;70568;51.378;-1.342;2023-09-19T12:13:43;99077.60;;;11.41;49.63
63339;BME280;70568;51.378;-1.342;2023-09-19T12:16:13;99080.58;;;10.55;51.69
63339;BME280;70568;51.378;-1.342;2023-09-19T12:18:40;99091.66;;;13.23;49.72
63339;BME280;70568;51.378;-1.342;2023-09-19T12:21:07;99076.33;;;12.12;47.99
63339;BME280;70568;51.378;-1.342;2023-09-19T12:23:33;99078.85;;;10.90;49.78
63339;BME280;70568;51.378;-1.342;2023-09-19T12:26:02;99076.47;;;10.74;50.19
63339;BME280;70568;51.378;-1.342;2023-09-19T12:28:28;99092.67;;;11.39;50.90
63339;BME280;70568;51.378;-1.342;2023-09-19T12:30:55;99084.31;;;11.30;50.71
63339;BME280;70568;51.378;-1.342;2023-09-19T12:33:21;99077.67;;;12.00;49.65
63339;BME280;70568;51.378;-1.342;2023-09-19T12:35:48;99083.71;;;9.88;50.61
63339;BME280;70568;51.378;-1.342;2023-09-19T12:38:23;99085.77;;;11.72;51.08
63339;BME280;70568;51.378;-1.342;2023-09-19T12:40:51;99085.49;;;11.81;47.81
63339;BME280;70568;51.378;-1.342;2023-09-19T12:43:18;99079.44;;;13.60;46.44
63339;BME280;70568;51.378;-1.342;2023-09-19T12:45:45;99084.96;;;12.82;49.57
63339;BME280;70568;51.378;-1.342;2023-09-19T12:48:28;99083.56;;;12.24;49.97
63339;BME280;70568;51.378;-1.342;2023-09-19T12:51:02;99087.71;;;12.07;50.06
63339;BME280;70568;51.378;-1.342;2023-09-19T12:53:29;99074.95;;;11.71;48.86
63339;BME280;70568;51.378;-1.342;2023-09-19T12:55:58;99071.33;;;11.06;51.33
63339;BME280;70568;51.378;-1.342;2023-09-19T12:58:26;99067.07;;;11.02;50.03
63339;BME280;70568;51.378;-1.342;2023-09-19T13:00:54;99076.76;;;10.01;49.89
63339;BME280;70568;51.378;-1.342;2023-09-19T13:05:52;99082.98;;;12.22;48.32
63339;BME280;70568;51.378;-1.342;2023-09-19T13:08:21;99085.03;;;10.86;51.41
63339;BME280;70568;51.378;-1.342;2023-09-19T13:11:06;99085.28;;;12.68;47.82
63339;BME280;70568;51.378;-1.342;2023-09-19T13:15:51;99079.43;;;12.39;46.43